Pagina principale
METAR-TAF:

METAR-TAF

Aeroporti :

Buochs, Svizzera

latitudine: 46-58-28N, longitudine: 8-23-49E, altezza: 449 m

Osservazione

Il bollettino è stato emesso 22 minuti fa, alle 05:20 UTC
Vento 4 kt da ovest, variando fra sud/sud-ovest e nord-ovest
Temperature 1°C
Umidità 93%
Pressione 1008 hPa
Visibilità 10 km o più
Poco nuvoloso ad un'altezza di 1200 ft
Nuvoloso ad un'altezza di 6000 ft

METAR: LSZC 180520Z AUTO 27004KT 210V310 9999 FEW012 BKN060 01/00 Q1008

Ora: 06:42 (05:42 UTC)

Previsione

Il bollettino è stato emesso 17 minuti fa, alle 05:25 UTC
Previsione valida dal 18 alle 06 UTC al 18 alle 15 UTC
Vento 5 kt da ovest/sud-ovest
Visibilità 10 km o più
Poco nuvoloso ad un'altezza di 1200 ft
Nuvoloso ad un'altezza di 6000 ft

TAF: LSZC 180525Z 1806/1815 25005KT 9999 FEW012 BKN060

Osservazioni e previsioni meteorologiche di più di 4000 aeroporti (messaggi METAR e TAF).

Le stazioni disponibili sono rappresentate dai dischi gialli e rossi sulla carta.

Puntare il mouse per vedere il nome della stazione.

Clicca sopra per visualizzare le osservazioni e previsioni meteorologiche.

Per cambiare la mappa : fare clic sui pulsanti verdi con una croce nera per ingrandire, il pulsante verde con un trattino per diminuire, o sulla freccia verde per le mappe adiacenti.


METAR-TAF: